sensor_id;sensor_type;location;lat;lon;timestamp;pressure;altitude;pressure_sealevel;temperature;humidity
56176;BME280;63065;51.082;17.016;2023-02-02T00:01:19;99551.33;;;2.43;58.91
56176;BME280;63065;51.082;17.016;2023-02-02T00:03:42;99552.67;;;2.06;60.10
56176;BME280;63065;51.082;17.016;2023-02-02T00:06:09;99542.24;;;2.13;59.94
56176;BME280;63065;51.082;17.016;2023-02-02T00:08:33;99543.13;;;2.35;60.28
56176;BME280;63065;51.082;17.016;2023-02-02T00:10:58;99542.37;;;2.39;59.49
56176;BME280;63065;51.082;17.016;2023-02-02T00:13:24;99550.84;;;2.23;60.01
56176;BME280;63065;51.082;17.016;2023-02-02T00:15:52;99554.44;;;1.37;62.37
56176;BME280;63065;51.082;17.016;2023-02-02T00:18:15;99547.67;;;1.21;63.17
56176;BME280;63065;51.082;17.016;2023-02-02T00:20:40;99541.95;;;1.77;61.42
56176;BME280;63065;51.082;17.016;2023-02-02T00:23:06;99536.12;;;2.20;60.35
56176;BME280;63065;51.082;17.016;2023-02-02T00:25:31;99540.36;;;2.29;59.83
56176;BME280;63065;51.082;17.016;2023-02-02T00:27:56;99537.04;;;1.85;60.69
56176;BME280;63065;51.082;17.016;2023-02-02T00:30:22;99540.50;;;2.04;59.59
56176;BME280;63065;51.082;17.016;2023-02-02T00:32:47;99533.29;;;2.22;58.45
56176;BME280;63065;51.082;17.016;2023-02-02T00:35:14;99544.38;;;1.89;60.23
56176;BME280;63065;51.082;17.016;2023-02-02T00:37:39;99546.21;;;1.95;60.06
56176;BME280;63065;51.082;17.016;2023-02-02T00:40:05;99541.32;;;1.93;60.48
56176;BME280;63065;51.082;17.016;2023-02-02T00:42:29;99555.56;;;2.23;59.21
56176;BME280;63065;51.082;17.016;2023-02-02T00:44:55;99561.68;;;1.36;60.04
56176;BME280;63065;51.082;17.016;2023-02-02T00:47:21;99562.09;;;1.74;60.50
56176;BME280;63065;51.082;17.016;2023-02-02T00:49:46;99558.38;;;1.39;61.54
56176;BME280;63065;51.082;17.016;2023-02-02T00:52:11;99555.14;;;1.10;61.68
56176;BME280;63065;51.082;17.016;2023-02-02T00:54:37;99554.14;;;1.32;61.91
56176;BME280;63065;51.082;17.016;2023-02-02T00:57:03;99567.21;;;1.68;61.70
56176;BME280;63065;51.082;17.016;2023-02-02T00:59:27;99554.22;;;2.31;59.58
56176;BME280;63065;51.082;17.016;2023-02-02T01:01:53;99558.13;;;2.66;57.17
56176;BME280;63065;51.082;17.016;2023-02-02T01:04:18;99556.79;;;2.39;57.72
56176;BME280;63065;51.082;17.016;2023-02-02T01:06:43;99562.93;;;2.45;57.50
56176;BME280;63065;51.082;17.016;2023-02-02T01:09:09;99562.51;;;1.73;59.12
56176;BME280;63065;51.082;17.016;2023-02-02T01:11:34;99563.31;;;2.43;57.37
56176;BME280;63065;51.082;17.016;2023-02-02T01:13:59;99564.37;;;1.44;58.95
56176;BME280;63065;51.082;17.016;2023-02-02T01:16:24;99562.07;;;1.95;58.67
56176;BME280;63065;51.082;17.016;2023-02-02T01:18:51;99568.91;;;1.79;58.40
56176;BME280;63065;51.082;17.016;2023-02-02T01:21:16;99564.89;;;2.21;57.62
56176;BME280;63065;51.082;17.016;2023-02-02T01:23:42;99565.02;;;2.45;57.11
56176;BME280;63065;51.082;17.016;2023-02-02T01:26:09;99566.98;;;2.83;56.08
56176;BME280;63065;51.082;17.016;2023-02-02T01:28:38;99566.29;;;2.22;57.45
56176;BME280;63065;51.082;17.016;2023-02-02T01:31:03;99568.88;;;2.11;57.58
56176;BME280;63065;51.082;17.016;2023-02-02T01:33:24;99577.48;;;1.80;58.69
56176;BME280;63065;51.082;17.016;2023-02-02T01:35:55;99577.31;;;2.14;58.03
56176;BME280;63065;51.082;17.016;2023-02-02T01:38:14;99571.33;;;2.48;56.90
56176;BME280;63065;51.082;17.016;2023-02-02T01:40:44;99571.50;;;1.61;58.05
56176;BME280;63065;51.082;17.016;2023-02-02T01:43:14;99577.25;;;1.73;58.47
56176;BME280;63065;51.082;17.016;2023-02-02T01:45:29;99569.39;;;1.89;58.26
56176;BME280;63065;51.082;17.016;2023-02-02T01:47:57;99562.21;;;2.23;58.16
56176;BME280;63065;51.082;17.016;2023-02-02T01:50:27;99565.00;;;2.53;56.11
56176;BME280;63065;51.082;17.016;2023-02-02T01:52:48;99555.42;;;2.22;56.50
56176;BME280;63065;51.082;17.016;2023-02-02T01:55:13;99561.62;;;2.33;56.59
56176;BME280;63065;51.082;17.016;2023-02-02T01:57:38;99564.15;;;2.14;56.38
56176;BME280;63065;51.082;17.016;2023-02-02T02:00:11;99567.00;;;1.96;56.54
56176;BME280;63065;51.082;17.016;2023-02-02T02:02:29;99565.59;;;2.36;57.04
56176;BME280;63065;51.082;17.016;2023-02-02T02:04:53;99563.70;;;2.08;56.77
56176;BME280;63065;51.082;17.016;2023-02-02T02:07:17;99557.29;;;2.24;58.21
56176;BME280;63065;51.082;17.016;2023-02-02T02:09:42;99555.37;;;2.60;56.20
56176;BME280;63065;51.082;17.016;2023-02-02T02:12:10;99555.35;;;2.48;56.42
56176;BME280;63065;51.082;17.016;2023-02-02T02:14:32;99561.43;;;2.76;56.27
56176;BME280;63065;51.082;17.016;2023-02-02T02:17:09;99557.14;;;2.53;55.11
56176;BME280;63065;51.082;17.016;2023-02-02T02:21:55;99549.55;;;2.82;54.27
56176;BME280;63065;51.082;17.016;2023-02-02T02:26:55;99547.17;;;2.86;54.17
56176;BME280;63065;51.082;17.016;2023-02-02T02:33:58;99547.24;;;2.29;56.16
56176;BME280;63065;51.082;17.016;2023-02-02T02:36:28;99537.92;;;2.40;55.82
56176;BME280;63065;51.082;17.016;2023-02-02T02:38:50;99542.45;;;2.97;54.86
56176;BME280;63065;51.082;17.016;2023-02-02T02:41:15;99533.55;;;2.64;55.95
56176;BME280;63065;51.082;17.016;2023-02-02T02:43:40;99540.16;;;2.65;54.31
56176;BME280;63065;51.082;17.016;2023-02-02T02:46:03;99547.87;;;2.64;54.10
56176;BME280;63065;51.082;17.016;2023-02-02T02:48:28;99545.77;;;1.73;56.40
56176;BME280;63065;51.082;17.016;2023-02-02T02:50:52;99546.81;;;2.60;56.23
56176;BME280;63065;51.082;17.016;2023-02-02T02:53:20;99538.56;;;2.50;55.68
56176;BME280;63065;51.082;17.016;2023-02-02T02:55:47;99543.91;;;2.64;55.73
56176;BME280;63065;51.082;17.016;2023-02-02T02:58:12;99535.85;;;2.26;54.88
56176;BME280;63065;51.082;17.016;2023-02-02T03:00:41;99537.69;;;2.00;56.50
56176;BME280;63065;51.082;17.016;2023-02-02T03:03:04;99533.69;;;2.70;55.08
56176;BME280;63065;51.082;17.016;2023-02-02T03:05:31;99533.47;;;2.82;54.65
56176;BME280;63065;51.082;17.016;2023-02-02T03:07:53;99525.24;;;2.48;54.47
56176;BME280;63065;51.082;17.016;2023-02-02T03:10:16;99528.06;;;2.41;54.63
56176;BME280;63065;51.082;17.016;2023-02-02T03:12:44;99525.75;;;1.97;55.40
56176;BME280;63065;51.082;17.016;2023-02-02T03:15:05;99519.22;;;2.61;55.55
56176;BME280;63065;51.082;17.016;2023-02-02T03:17:30;99525.74;;;2.61;55.07
56176;BME280;63065;51.082;17.016;2023-02-02T03:19:55;99520.70;;;2.05;55.42
56176;BME280;63065;51.082;17.016;2023-02-02T03:22:20;99514.96;;;2.42;55.61
56176;BME280;63065;51.082;17.016;2023-02-02T03:24:46;99512.84;;;2.79;54.70
56176;BME280;63065;51.082;17.016;2023-02-02T03:27:16;99510.22;;;2.04;54.80
56176;BME280;63065;51.082;17.016;2023-02-02T03:29:36;99504.82;;;2.20;55.45
56176;BME280;63065;51.082;17.016;2023-02-02T03:32:02;99489.95;;;2.40;55.50
56176;BME280;63065;51.082;17.016;2023-02-02T03:34:27;99485.61;;;2.26;55.06
56176;BME280;63065;51.082;17.016;2023-02-02T03:36:53;99479.54;;;2.42;53.86
56176;BME280;63065;51.082;17.016;2023-02-02T03:39:19;99472.08;;;1.96;54.67
56176;BME280;63065;51.082;17.016;2023-02-02T03:41:44;99482.12;;;2.43;54.68
56176;BME280;63065;51.082;17.016;2023-02-02T03:44:09;99484.63;;;2.25;55.01
56176;BME280;63065;51.082;17.016;2023-02-02T03:46:34;99472.66;;;2.09;54.97
56176;BME280;63065;51.082;17.016;2023-02-02T03:48:59;99469.32;;;1.95;55.02
56176;BME280;63065;51.082;17.016;2023-02-02T03:51:25;99477.73;;;2.23;54.28
56176;BME280;63065;51.082;17.016;2023-02-02T03:53:50;99471.31;;;2.73;54.66
56176;BME280;63065;51.082;17.016;2023-02-02T03:56:15;99473.38;;;2.12;54.97
56176;BME280;63065;51.082;17.016;2023-02-02T03:58:40;99468.59;;;1.99;54.15
56176;BME280;63065;51.082;17.016;2023-02-02T04:01:10;99475.41;;;1.91;55.72
56176;BME280;63065;51.082;17.016;2023-02-02T04:03:32;99466.67;;;2.46;53.93
56176;BME280;63065;51.082;17.016;2023-02-02T04:05:57;99468.91;;;2.95;53.92
56176;BME280;63065;51.082;17.016;2023-02-02T04:08:22;99465.64;;;3.03;52.74
56176;BME280;63065;51.082;17.016;2023-02-02T04:10:48;99468.32;;;2.56;53.90
56176;BME280;63065;51.082;17.016;2023-02-02T04:13:13;99472.43;;;2.57;53.77
56176;BME280;63065;51.082;17.016;2023-02-02T04:15:39;99469.85;;;2.57;53.74
56176;BME280;63065;51.082;17.016;2023-02-02T04:18:03;99466.11;;;3.00;52.42
56176;BME280;63065;51.082;17.016;2023-02-02T04:20:28;99462.27;;;2.85;51.88
56176;BME280;63065;51.082;17.016;2023-02-02T04:22:54;99466.43;;;2.68;53.66
56176;BME280;63065;51.082;17.016;2023-02-02T04:25:20;99458.41;;;2.70;53.01
56176;BME280;63065;51.082;17.016;2023-02-02T04:27:45;99469.40;;;2.48;52.98
56176;BME280;63065;51.082;17.016;2023-02-02T04:30:11;99472.12;;;3.04;53.23
56176;BME280;63065;51.082;17.016;2023-02-02T04:32:35;99466.90;;;3.15;52.21
56176;BME280;63065;51.082;17.016;2023-02-02T04:35:00;99469.71;;;3.22;52.07
56176;BME280;63065;51.082;17.016;2023-02-02T04:37:25;99464.90;;;3.31;52.31
56176;BME280;63065;51.082;17.016;2023-02-02T04:39:50;99469.12;;;2.68;52.41
56176;BME280;63065;51.082;17.016;2023-02-02T04:42:15;99468.05;;;2.79;52.96
56176;BME280;63065;51.082;17.016;2023-02-02T04:44:41;99472.10;;;2.81;52.51
56176;BME280;63065;51.082;17.016;2023-02-02T04:47:06;99470.78;;;2.57;53.04
56176;BME280;63065;51.082;17.016;2023-02-02T04:49:31;99465.43;;;2.66;53.47
56176;BME280;63065;51.082;17.016;2023-02-02T04:51:57;99463.94;;;2.43;52.67
56176;BME280;63065;51.082;17.016;2023-02-02T04:54:22;99463.99;;;2.73;52.69
56176;BME280;63065;51.082;17.016;2023-02-02T04:56:47;99458.76;;;2.75;52.50
56176;BME280;63065;51.082;17.016;2023-02-02T04:59:13;99458.12;;;3.41;52.04
56176;BME280;63065;51.082;17.016;2023-02-02T05:01:37;99451.26;;;2.63;53.07
56176;BME280;63065;51.082;17.016;2023-02-02T05:04:03;99462.42;;;2.83;52.19
56176;BME280;63065;51.082;17.016;2023-02-02T05:06:28;99458.97;;;2.99;51.26
56176;BME280;63065;51.082;17.016;2023-02-02T05:08:58;99460.02;;;3.00;52.06
56176;BME280;63065;51.082;17.016;2023-02-02T05:11:20;99457.68;;;3.49;51.39
56176;BME280;63065;51.082;17.016;2023-02-02T05:13:45;99460.37;;;3.11;51.42
56176;BME280;63065;51.082;17.016;2023-02-02T05:16:09;99461.96;;;2.73;52.90
56176;BME280;63065;51.082;17.016;2023-02-02T05:18:35;99475.99;;;2.22;54.53
56176;BME280;63065;51.082;17.016;2023-02-02T05:21:00;99476.35;;;2.77;53.58
56176;BME280;63065;51.082;17.016;2023-02-02T05:23:25;99465.63;;;3.15;51.72
56176;BME280;63065;51.082;17.016;2023-02-02T05:25:51;99469.81;;;2.41;53.37
56176;BME280;63065;51.082;17.016;2023-02-02T05:28:16;99484.83;;;2.89;54.79
56176;BME280;63065;51.082;17.016;2023-02-02T05:30:41;99474.20;;;2.49;52.02
56176;BME280;63065;51.082;17.016;2023-02-02T05:33:07;99475.58;;;2.84;52.73
56176;BME280;63065;51.082;17.016;2023-02-02T05:35:32;99476.41;;;3.03;52.64
56176;BME280;63065;51.082;17.016;2023-02-02T05:37:57;99471.34;;;3.06;51.96
56176;BME280;63065;51.082;17.016;2023-02-02T05:40:24;99469.80;;;2.87;52.69
56176;BME280;63065;51.082;17.016;2023-02-02T05:42:49;99476.89;;;2.76;53.20
56176;BME280;63065;51.082;17.016;2023-02-02T05:45:14;99474.11;;;2.67;53.29
56176;BME280;63065;51.082;17.016;2023-02-02T05:47:39;99486.95;;;2.33;53.23
56176;BME280;63065;51.082;17.016;2023-02-02T05:50:05;99482.50;;;2.34;54.11
56176;BME280;63065;51.082;17.016;2023-02-02T05:52:33;99485.08;;;2.26;54.70
56176;BME280;63065;51.082;17.016;2023-02-02T05:54:55;99479.62;;;3.11;52.65
56176;BME280;63065;51.082;17.016;2023-02-02T05:57:20;99476.48;;;2.63;52.86
56176;BME280;63065;51.082;17.016;2023-02-02T05:59:45;99486.38;;;3.09;52.19
56176;BME280;63065;51.082;17.016;2023-02-02T06:02:10;99496.96;;;3.20;51.32
56176;BME280;63065;51.082;17.016;2023-02-02T06:04:36;99500.48;;;2.72;52.08
56176;BME280;63065;51.082;17.016;2023-02-02T06:07:01;99500.91;;;3.33;51.71
56176;BME280;63065;51.082;17.016;2023-02-02T06:09:27;99508.61;;;2.98;52.97
56176;BME280;63065;51.082;17.016;2023-02-02T06:11:52;99506.50;;;2.86;52.88
56176;BME280;63065;51.082;17.016;2023-02-02T06:14:18;99511.53;;;2.76;53.48
56176;BME280;63065;51.082;17.016;2023-02-02T06:16:43;99512.70;;;3.06;52.49
56176;BME280;63065;51.082;17.016;2023-02-02T06:19:08;99514.26;;;3.28;52.41
56176;BME280;63065;51.082;17.016;2023-02-02T06:21:33;99518.10;;;2.91;53.86
56176;BME280;63065;51.082;17.016;2023-02-02T06:23:58;99523.67;;;2.29;55.42
56176;BME280;63065;51.082;17.016;2023-02-02T06:26:23;99522.27;;;2.39;55.89
56176;BME280;63065;51.082;17.016;2023-02-02T06:28:50;99534.04;;;3.00;54.61
56176;BME280;63065;51.082;17.016;2023-02-02T06:31:14;99530.21;;;2.86;54.72
56176;BME280;63065;51.082;17.016;2023-02-02T06:33:39;99526.67;;;3.02;54.73
56176;BME280;63065;51.082;17.016;2023-02-02T06:36:06;99534.38;;;3.87;53.77
56176;BME280;63065;51.082;17.016;2023-02-02T06:38:29;99538.70;;;2.92;55.79
56176;BME280;63065;51.082;17.016;2023-02-02T06:40:54;99539.71;;;2.31;57.82
56176;BME280;63065;51.082;17.016;2023-02-02T06:43:19;99539.06;;;2.02;59.06
56176;BME280;63065;51.082;17.016;2023-02-02T06:45:44;99546.82;;;1.97;59.59
56176;BME280;63065;51.082;17.016;2023-02-02T06:48:10;99545.37;;;2.48;57.85
56176;BME280;63065;51.082;17.016;2023-02-02T06:50:35;99554.72;;;2.09;59.38
56176;BME280;63065;51.082;17.016;2023-02-02T06:53:00;99563.13;;;2.29;58.23
56176;BME280;63065;51.082;17.016;2023-02-02T06:55:25;99565.96;;;1.79;60.76
56176;BME280;63065;51.082;17.016;2023-02-02T06:57:55;99570.28;;;1.98;59.11
56176;BME280;63065;51.082;17.016;2023-02-02T07:00:16;99564.77;;;1.87;59.73
56176;BME280;63065;51.082;17.016;2023-02-02T07:02:44;99568.03;;;2.45;58.41
56176;BME280;63065;51.082;17.016;2023-02-02T07:05:07;99571.39;;;2.42;58.63
56176;BME280;63065;51.082;17.016;2023-02-02T07:07:33;99580.55;;;2.08;58.72
56176;BME280;63065;51.082;17.016;2023-02-02T07:09:57;99578.96;;;2.16;59.51
56176;BME280;63065;51.082;17.016;2023-02-02T07:12:22;99585.92;;;2.81;57.73
56176;BME280;63065;51.082;17.016;2023-02-02T07:14:47;99592.52;;;2.08;60.45
56176;BME280;63065;51.082;17.016;2023-02-02T07:17:12;99592.01;;;1.82;59.75
56176;BME280;63065;51.082;17.016;2023-02-02T07:19:37;99589.60;;;2.31;58.78
56176;BME280;63065;51.082;17.016;2023-02-02T07:22:03;99587.42;;;2.14;59.18
56176;BME280;63065;51.082;17.016;2023-02-02T07:24:28;99610.65;;;2.41;58.30
56176;BME280;63065;51.082;17.016;2023-02-02T07:26:53;99591.45;;;2.88;58.11
56176;BME280;63065;51.082;17.016;2023-02-02T07:29:19;99605.72;;;3.13;56.28
56176;BME280;63065;51.082;17.016;2023-02-02T07:31:44;99601.06;;;2.96;57.02
56176;BME280;63065;51.082;17.016;2023-02-02T07:34:09;99600.39;;;3.02;56.05
56176;BME280;63065;51.082;17.016;2023-02-02T07:36:39;99617.01;;;2.26;58.18
56176;BME280;63065;51.082;17.016;2023-02-02T07:38:59;99614.11;;;2.56;57.66
56176;BME280;63065;51.082;17.016;2023-02-02T07:41:25;99619.52;;;2.68;56.78
56176;BME280;63065;51.082;17.016;2023-02-02T07:43:50;99629.97;;;3.28;55.36
56176;BME280;63065;51.082;17.016;2023-02-02T07:46:16;99628.18;;;2.78;56.99
56176;BME280;63065;51.082;17.016;2023-02-02T07:48:45;99627.05;;;2.22;57.85
56176;BME280;63065;51.082;17.016;2023-02-02T07:51:07;99631.63;;;2.05;58.67
56176;BME280;63065;51.082;17.016;2023-02-02T07:53:31;99644.30;;;2.24;57.89
56176;BME280;63065;51.082;17.016;2023-02-02T07:56:05;99639.07;;;2.78;56.78
56176;BME280;63065;51.082;17.016;2023-02-02T07:58:20;99656.03;;;2.12;58.25
56176;BME280;63065;51.082;17.016;2023-02-02T08:00:45;99673.95;;;2.74;57.85
56176;BME280;63065;51.082;17.016;2023-02-02T08:03:11;99673.73;;;1.98;59.20
56176;BME280;63065;51.082;17.016;2023-02-02T08:05:36;99679.13;;;2.04;60.06
56176;BME280;63065;51.082;17.016;2023-02-02T08:08:01;99683.06;;;2.55;58.26
56176;BME280;63065;51.082;17.016;2023-02-02T08:10:26;99684.90;;;2.26;59.65
56176;BME280;63065;51.082;17.016;2023-02-02T08:12:52;99685.22;;;2.27;59.03
56176;BME280;63065;51.082;17.016;2023-02-02T08:15:17;99695.27;;;2.56;57.18
56176;BME280;63065;51.082;17.016;2023-02-02T08:17:44;99689.19;;;3.26;55.47
56176;BME280;63065;51.082;17.016;2023-02-02T08:20:10;99697.85;;;2.49;56.23
56176;BME280;63065;51.082;17.016;2023-02-02T08:22:33;99701.87;;;2.79;56.19
56176;BME280;63065;51.082;17.016;2023-02-02T08:24:58;99695.67;;;3.00;55.30
56176;BME280;63065;51.082;17.016;2023-02-02T08:27:23;99709.79;;;3.79;54.64
56176;BME280;63065;51.082;17.016;2023-02-02T08:29:49;99713.80;;;3.57;54.22
56176;BME280;63065;51.082;17.016;2023-02-02T08:32:14;99718.47;;;3.77;54.09
56176;BME280;63065;51.082;17.016;2023-02-02T08:34:39;99718.45;;;4.31;53.00
56176;BME280;63065;51.082;17.016;2023-02-02T08:37:04;99722.18;;;2.92;55.84
56176;BME280;63065;51.082;17.016;2023-02-02T08:39:29;99736.02;;;2.57;56.83
56176;BME280;63065;51.082;17.016;2023-02-02T08:41:55;99731.27;;;2.65;56.07
56176;BME280;63065;51.082;17.016;2023-02-02T08:44:20;99730.91;;;2.21;57.18
56176;BME280;63065;51.082;17.016;2023-02-02T08:46:45;99737.60;;;2.09;58.33
56176;BME280;63065;51.082;17.016;2023-02-02T08:49:13;99750.03;;;3.46;55.37
56176;BME280;63065;51.082;17.016;2023-02-02T08:51:35;99745.91;;;3.35;54.48
56176;BME280;63065;51.082;17.016;2023-02-02T08:54:01;99751.44;;;3.47;54.54
56176;BME280;63065;51.082;17.016;2023-02-02T08:56:27;99750.19;;;2.74;55.73
56176;BME280;63065;51.082;17.016;2023-02-02T08:58:52;99753.08;;;3.39;54.33
56176;BME280;63065;51.082;17.016;2023-02-02T09:01:18;99772.58;;;3.91;52.85
56176;BME280;63065;51.082;17.016;2023-02-02T09:03:42;99766.53;;;3.63;52.92
56176;BME280;63065;51.082;17.016;2023-02-02T09:06:09;99773.37;;;3.32;54.82
56176;BME280;63065;51.082;17.016;2023-02-02T09:08:32;99768.08;;;3.50;53.98
56176;BME280;63065;51.082;17.016;2023-02-02T09:11:03;99777.53;;;3.91;53.34
56176;BME280;63065;51.082;17.016;2023-02-02T09:13:23;99793.70;;;3.03;53.91
56176;BME280;63065;51.082;17.016;2023-02-02T09:15:48;99797.05;;;3.61;54.15
56176;BME280;63065;51.082;17.016;2023-02-02T09:18:14;99805.09;;;3.30;54.05
56176;BME280;63065;51.082;17.016;2023-02-02T09:20:39;99807.74;;;3.76;52.75
56176;BME280;63065;51.082;17.016;2023-02-02T09:23:05;99817.54;;;3.21;52.98
56176;BME280;63065;51.082;17.016;2023-02-02T09:25:29;99821.82;;;3.91;52.82
56176;BME280;63065;51.082;17.016;2023-02-02T09:27:55;99820.08;;;3.81;52.35
56176;BME280;63065;51.082;17.016;2023-02-02T09:30:21;99827.36;;;3.93;51.96
56176;BME280;63065;51.082;17.016;2023-02-02T09:32:48;99835.26;;;3.42;52.50
56176;BME280;63065;51.082;17.016;2023-02-02T09:35:11;99837.83;;;3.70;51.26
56176;BME280;63065;51.082;17.016;2023-02-02T09:37:36;99837.43;;;3.93;51.27
56176;BME280;63065;51.082;17.016;2023-02-02T09:40:01;99850.37;;;3.80;52.03
56176;BME280;63065;51.082;17.016;2023-02-02T09:42:34;99850.81;;;3.52;51.94
56176;BME280;63065;51.082;17.016;2023-02-02T09:44:58;99843.34;;;3.44;52.31
56176;BME280;63065;51.082;17.016;2023-02-02T09:47:20;99845.11;;;3.74;52.32
56176;BME280;63065;51.082;17.016;2023-02-02T09:49:50;99851.21;;;3.44;51.95
56176;BME280;63065;51.082;17.016;2023-02-02T09:52:12;99856.66;;;3.95;52.15
56176;BME280;63065;51.082;17.016;2023-02-02T09:54:37;99843.67;;;3.48;52.82
56176;BME280;63065;51.082;17.016;2023-02-02T09:57:00;99853.05;;;3.58;52.84
56176;BME280;63065;51.082;17.016;2023-02-02T09:59:26;99863.52;;;2.92;53.78
56176;BME280;63065;51.082;17.016;2023-02-02T10:01:51;99872.01;;;3.45;53.73
56176;BME280;63065;51.082;17.016;2023-02-02T10:04:17;99872.52;;;3.99;52.13
56176;BME280;63065;51.082;17.016;2023-02-02T10:06:40;99857.79;;;4.10;51.82
56176;BME280;63065;51.082;17.016;2023-02-02T10:09:16;99864.04;;;4.25;50.70
56176;BME280;63065;51.082;17.016;2023-02-02T10:11:33;99874.32;;;3.80;53.13
56176;BME280;63065;51.082;17.016;2023-02-02T10:13:58;99879.39;;;4.16;52.12
56176;BME280;63065;51.082;17.016;2023-02-02T10:16:21;99885.64;;;3.80;53.74
56176;BME280;63065;51.082;17.016;2023-02-02T10:18:50;99884.35;;;3.51;55.33
56176;BME280;63065;51.082;17.016;2023-02-02T10:21:14;99886.99;;;4.35;54.23
56176;BME280;63065;51.082;17.016;2023-02-02T10:23:38;99891.65;;;4.36;54.53
56176;BME280;63065;51.082;17.016;2023-02-02T10:26:10;99899.47;;;3.96;55.50
56176;BME280;63065;51.082;17.016;2023-02-02T10:28:40;99911.26;;;3.54;55.34
56176;BME280;63065;51.082;17.016;2023-02-02T10:30:58;99915.45;;;4.06;55.67
56176;BME280;63065;51.082;17.016;2023-02-02T10:33:26;99911.70;;;3.28;56.48
56176;BME280;63065;51.082;17.016;2023-02-02T10:35:48;99914.01;;;2.92;58.67
56176;BME280;63065;51.082;17.016;2023-02-02T10:38:16;99917.58;;;2.66;59.97
56176;BME280;63065;51.082;17.016;2023-02-02T10:40:43;99913.61;;;2.07;62.09
56176;BME280;63065;51.082;17.016;2023-02-02T10:43:15;99917.71;;;2.47;61.49
56176;BME280;63065;51.082;17.016;2023-02-02T10:45:24;99922.04;;;2.84;59.15
56176;BME280;63065;51.082;17.016;2023-02-02T10:47:50;99925.99;;;1.74;62.65
56176;BME280;63065;51.082;17.016;2023-02-02T10:50:17;99931.78;;;1.26;64.82
56176;BME280;63065;51.082;17.016;2023-02-02T10:52:42;99931.05;;;2.21;62.70
56176;BME280;63065;51.082;17.016;2023-02-02T10:55:09;99924.08;;;2.27;63.73
56176;BME280;63065;51.082;17.016;2023-02-02T10:57:39;99930.50;;;1.66;63.20
56176;BME280;63065;51.082;17.016;2023-02-02T11:00:03;99936.29;;;2.77;62.06
56176;BME280;63065;51.082;17.016;2023-02-02T11:02:20;99940.36;;;3.23;59.53
56176;BME280;63065;51.082;17.016;2023-02-02T11:04:46;99939.38;;;2.64;60.51
56176;BME280;63065;51.082;17.016;2023-02-02T11:07:11;99946.09;;;3.35;58.59
56176;BME280;63065;51.082;17.016;2023-02-02T11:09:38;99947.94;;;3.33;58.85
56176;BME280;63065;51.082;17.016;2023-02-02T11:12:04;99947.55;;;2.69;60.08
56176;BME280;63065;51.082;17.016;2023-02-02T11:14:33;99955.03;;;3.72;57.94
56176;BME280;63065;51.082;17.016;2023-02-02T11:16:59;99957.79;;;3.59;57.64
56176;BME280;63065;51.082;17.016;2023-02-02T11:19:21;99948.56;;;2.82;58.61
56176;BME280;63065;51.082;17.016;2023-02-02T11:21:40;99954.83;;;2.09;60.32
56176;BME280;63065;51.082;17.016;2023-02-02T11:24:16;99960.46;;;2.64;60.27
56176;BME280;63065;51.082;17.016;2023-02-02T11:26:40;99963.68;;;2.22;61.38
56176;BME280;63065;51.082;17.016;2023-02-02T11:28:56;99974.99;;;2.02;61.19
56176;BME280;63065;51.082;17.016;2023-02-02T11:31:29;99958.38;;;2.41;61.50
56176;BME280;63065;51.082;17.016;2023-02-02T11:33:46;99967.06;;;2.73;60.28
56176;BME280;63065;51.082;17.016;2023-02-02T11:36:17;99968.94;;;2.37;59.96
56176;BME280;63065;51.082;17.016;2023-02-02T11:38:36;99968.24;;;1.88;61.79
56176;BME280;63065;51.082;17.016;2023-02-02T11:41:04;99972.03;;;2.82;60.69
56176;BME280;63065;51.082;17.016;2023-02-02T11:43:29;99980.55;;;2.27;59.84
56176;BME280;63065;51.082;17.016;2023-02-02T11:45:54;99974.11;;;2.60;58.98
56176;BME280;63065;51.082;17.016;2023-02-02T11:48:18;99985.22;;;3.20;59.12
56176;BME280;63065;51.082;17.016;2023-02-02T11:50:46;99977.54;;;2.91;58.57
56176;BME280;63065;51.082;17.016;2023-02-02T11:55:34;99997.35;;;3.51;56.85
56176;BME280;63065;51.082;17.016;2023-02-02T12:00:24;99992.35;;;3.61;57.26
56176;BME280;63065;51.082;17.016;2023-02-02T12:02:48;99993.12;;;2.85;56.74
56176;BME280;63065;51.082;17.016;2023-02-02T12:07:39;99996.38;;;4.49;55.09
56176;BME280;63065;51.082;17.016;2023-02-02T12:10:13;100000.68;;;3.67;55.13
56176;BME280;63065;51.082;17.016;2023-02-02T12:12:40;100007.64;;;4.45;55.42
56176;BME280;63065;51.082;17.016;2023-02-02T12:15:02;100004.27;;;4.06;54.52
56176;BME280;63065;51.082;17.016;2023-02-02T12:17:31;100013.41;;;3.54;55.87
56176;BME280;63065;51.082;17.016;2023-02-02T12:19:58;100016.80;;;3.53;58.28
56176;BME280;63065;51.082;17.016;2023-02-02T12:22:21;100024.21;;;2.47;60.93
56176;BME280;63065;51.082;17.016;2023-02-02T12:24:42;100024.84;;;3.12;59.01
56176;BME280;63065;51.082;17.016;2023-02-02T12:27:12;100030.93;;;3.36;57.03
56176;BME280;63065;51.082;17.016;2023-02-02T12:29:37;100037.85;;;3.46;56.09
56176;BME280;63065;51.082;17.016;2023-02-02T12:32:05;100033.16;;;3.44;57.13
56176;BME280;63065;51.082;17.016;2023-02-02T12:34:24;100035.73;;;3.50;56.89
56176;BME280;63065;51.082;17.016;2023-02-02T12:36:49;100040.97;;;3.07;57.02
56176;BME280;63065;51.082;17.016;2023-02-02T12:39:19;100045.17;;;3.23;56.94
56176;BME280;63065;51.082;17.016;2023-02-02T12:41:43;100050.20;;;3.68;56.08
56176;BME280;63065;51.082;17.016;2023-02-02T12:44:01;100056.52;;;3.68;56.41
56176;BME280;63065;51.082;17.016;2023-02-02T12:46:36;100062.62;;;2.60;56.69
56176;BME280;63065;51.082;17.016;2023-02-02T12:48:59;100062.02;;;2.05;61.40
56176;BME280;63065;51.082;17.016;2023-02-02T12:51:26;100067.85;;;2.19;61.57
56176;BME280;63065;51.082;17.016;2023-02-02T12:53:54;100064.51;;;3.23;58.77
56176;BME280;63065;51.082;17.016;2023-02-02T12:56:14;100065.98;;;2.62;58.06
56176;BME280;63065;51.082;17.016;2023-02-02T12:58:36;100075.33;;;3.78;56.59
56176;BME280;63065;51.082;17.016;2023-02-02T13:01:09;100073.76;;;3.51;57.33
56176;BME280;63065;51.082;17.016;2023-02-02T13:03:28;100074.74;;;2.30;58.70
56176;BME280;63065;51.082;17.016;2023-02-02T13:05:55;100069.48;;;2.40;59.00